sensor_id;sensor_type;location;lat;lon;timestamp;temperature;humidity
11005;DHT22;5555;59.622;16.556;2023-08-07T00:00:22;17.00;99.90
11005;DHT22;5555;59.622;16.556;2023-08-07T00:02:48;17.10;99.90
11005;DHT22;5555;59.622;16.556;2023-08-07T00:05:14;17.00;99.90
11005;DHT22;5555;59.622;16.556;2023-08-07T00:07:40;17.10;99.90
11005;DHT22;5555;59.622;16.556;2023-08-07T00:10:06;17.10;99.90
11005;DHT22;5555;59.622;16.556;2023-08-07T00:12:32;17.00;99.90
11005;DHT22;5555;59.622;16.556;2023-08-07T00:14:58;17.10;99.90
11005;DHT22;5555;59.622;16.556;2023-08-07T00:17:23;17.10;99.90
11005;DHT22;5555;59.622;16.556;2023-08-07T00:19:49;17.10;99.90
11005;DHT22;5555;59.622;16.556;2023-08-07T00:22:14;17.10;99.90
11005;DHT22;5555;59.622;16.556;2023-08-07T00:24:40;17.10;99.90
11005;DHT22;5555;59.622;16.556;2023-08-07T00:27:06;17.20;99.90
11005;DHT22;5555;59.622;16.556;2023-08-07T00:29:35;17.20;99.90
11005;DHT22;5555;59.622;16.556;2023-08-07T00:32:00;17.10;99.90
11005;DHT22;5555;59.622;16.556;2023-08-07T00:34:26;17.20;99.90
11005;DHT22;5555;59.622;16.556;2023-08-07T00:36:52;17.20;99.90
11005;DHT22;5555;59.622;16.556;2023-08-07T00:39:17;17.20;99.90
11005;DHT22;5555;59.622;16.556;2023-08-07T00:41:43;17.20;99.90
11005;DHT22;5555;59.622;16.556;2023-08-07T00:44:08;17.30;99.90
11005;DHT22;5555;59.622;16.556;2023-08-07T00:46:34;17.30;99.90
11005;DHT22;5555;59.622;16.556;2023-08-07T00:49:00;17.40;99.90
11005;DHT22;5555;59.622;16.556;2023-08-07T00:51:26;17.30;99.90
11005;DHT22;5555;59.622;16.556;2023-08-07T00:53:52;17.40;99.90
11005;DHT22;5555;59.622;16.556;2023-08-07T00:56:17;17.40;99.90
11005;DHT22;5555;59.622;16.556;2023-08-07T00:58:43;17.50;99.90
11005;DHT22;5555;59.622;16.556;2023-08-07T01:01:09;17.40;99.90
11005;DHT22;5555;59.622;16.556;2023-08-07T01:03:35;17.40;99.90
11005;DHT22;5555;59.622;16.556;2023-08-07T01:06:01;17.50;99.90
11005;DHT22;5555;59.622;16.556;2023-08-07T01:08:27;17.50;99.90
11005;DHT22;5555;59.622;16.556;2023-08-07T01:16:23;17.50;99.90
11005;DHT22;5555;59.622;16.556;2023-08-07T01:18:51;17.50;99.90
11005;DHT22;5555;59.622;16.556;2023-08-07T01:21:19;17.50;99.90
11005;DHT22;5555;59.622;16.556;2023-08-07T01:23:46;17.50;99.90
11005;DHT22;5555;59.622;16.556;2023-08-07T01:26:12;17.50;99.90
11005;DHT22;5555;59.622;16.556;2023-08-07T01:28:42;17.50;99.90
11005;DHT22;5555;59.622;16.556;2023-08-07T01:31:14;17.50;99.90
11005;DHT22;5555;59.622;16.556;2023-08-07T01:34:08;17.50;99.90
11005;DHT22;5555;59.622;16.556;2023-08-07T01:36:38;17.60;99.90
11005;DHT22;5555;59.622;16.556;2023-08-07T01:39:05;17.60;99.90
11005;DHT22;5555;59.622;16.556;2023-08-07T01:41:32;17.60;99.90
11005;DHT22;5555;59.622;16.556;2023-08-07T01:43:59;17.60;99.90
11005;DHT22;5555;59.622;16.556;2023-08-07T01:46:25;17.70;99.90
11005;DHT22;5555;59.622;16.556;2023-08-07T01:48:50;17.70;99.90
11005;DHT22;5555;59.622;16.556;2023-08-07T01:51:16;17.70;99.90
11005;DHT22;5555;59.622;16.556;2023-08-07T01:53:41;17.70;99.90
11005;DHT22;5555;59.622;16.556;2023-08-07T01:56:07;17.70;99.90
11005;DHT22;5555;59.622;16.556;2023-08-07T01:58:33;17.70;99.90
11005;DHT22;5555;59.622;16.556;2023-08-07T02:00:58;17.70;99.90
11005;DHT22;5555;59.622;16.556;2023-08-07T02:03:24;17.70;99.90
11005;DHT22;5555;59.622;16.556;2023-08-07T02:05:49;17.70;99.90
11005;DHT22;5555;59.622;16.556;2023-08-07T02:08:15;17.70;99.90
11005;DHT22;5555;59.622;16.556;2023-08-07T02:10:41;17.80;99.90
11005;DHT22;5555;59.622;16.556;2023-08-07T02:13:06;17.70;99.90
11005;DHT22;5555;59.622;16.556;2023-08-07T02:15:32;17.80;99.90
11005;DHT22;5555;59.622;16.556;2023-08-07T02:17:57;17.80;99.90
11005;DHT22;5555;59.622;16.556;2023-08-07T02:20:24;17.80;99.90
11005;DHT22;5555;59.622;16.556;2023-08-07T02:22:50;17.80;99.90
11005;DHT22;5555;59.622;16.556;2023-08-07T02:25:16;17.80;99.90
11005;DHT22;5555;59.622;16.556;2023-08-07T02:27:41;17.80;99.90
11005;DHT22;5555;59.622;16.556;2023-08-07T02:30:07;17.80;99.90
11005;DHT22;5555;59.622;16.556;2023-08-07T02:32:33;17.80;99.90
11005;DHT22;5555;59.622;16.556;2023-08-07T02:34:58;17.80;99.90
11005;DHT22;5555;59.622;16.556;2023-08-07T02:37:24;17.80;99.90
11005;DHT22;5555;59.622;16.556;2023-08-07T02:39:50;17.80;99.90
11005;DHT22;5555;59.622;16.556;2023-08-07T02:42:16;17.80;99.90
11005;DHT22;5555;59.622;16.556;2023-08-07T02:44:41;17.80;99.90
11005;DHT22;5555;59.622;16.556;2023-08-07T02:47:07;17.80;99.90
11005;DHT22;5555;59.622;16.556;2023-08-07T02:49:32;17.70;99.90
11005;DHT22;5555;59.622;16.556;2023-08-07T02:51:58;17.70;99.90
11005;DHT22;5555;59.622;16.556;2023-08-07T02:54:24;17.70;99.90
11005;DHT22;5555;59.622;16.556;2023-08-07T02:56:49;17.70;99.90
11005;DHT22;5555;59.622;16.556;2023-08-07T02:59:15;17.70;99.90
11005;DHT22;5555;59.622;16.556;2023-08-07T03:01:42;17.70;99.90
11005;DHT22;5555;59.622;16.556;2023-08-07T03:04:08;17.70;99.90
11005;DHT22;5555;59.622;16.556;2023-08-07T03:06:34;17.70;99.90
11005;DHT22;5555;59.622;16.556;2023-08-07T03:08:59;17.70;99.90
11005;DHT22;5555;59.622;16.556;2023-08-07T03:11:25;17.70;99.90
11005;DHT22;5555;59.622;16.556;2023-08-07T03:13:51;17.70;99.90
11005;DHT22;5555;59.622;16.556;2023-08-07T03:16:16;17.70;99.90
11005;DHT22;5555;59.622;16.556;2023-08-07T03:18:42;17.70;99.90
11005;DHT22;5555;59.622;16.556;2023-08-07T03:21:08;17.70;99.90
11005;DHT22;5555;59.622;16.556;2023-08-07T03:23:34;17.70;99.90
11005;DHT22;5555;59.622;16.556;2023-08-07T03:26:17;17.70;99.90
11005;DHT22;5555;59.622;16.556;2023-08-07T03:28:43;17.80;99.90
11005;DHT22;5555;59.622;16.556;2023-08-07T03:31:11;17.80;99.90
11005;DHT22;5555;59.622;16.556;2023-08-07T03:33:37;17.80;99.90
11005;DHT22;5555;59.622;16.556;2023-08-07T03:36:02;17.90;99.90
11005;DHT22;5555;59.622;16.556;2023-08-07T03:38:28;17.90;99.90
11005;DHT22;5555;59.622;16.556;2023-08-07T03:40:54;17.90;99.90
11005;DHT22;5555;59.622;16.556;2023-08-07T03:43:19;18.00;99.90
11005;DHT22;5555;59.622;16.556;2023-08-07T03:45:45;18.00;99.90
11005;DHT22;5555;59.622;16.556;2023-08-07T03:48:11;18.00;99.90
11005;DHT22;5555;59.622;16.556;2023-08-07T03:50:36;18.00;99.90
11005;DHT22;5555;59.622;16.556;2023-08-07T03:53:05;18.10;99.90
11005;DHT22;5555;59.622;16.556;2023-08-07T03:55:32;18.10;99.90
11005;DHT22;5555;59.622;16.556;2023-08-07T03:57:58;18.10;99.90
11005;DHT22;5555;59.622;16.556;2023-08-07T04:00:23;18.10;99.90
11005;DHT22;5555;59.622;16.556;2023-08-07T04:02:49;18.10;99.90
11005;DHT22;5555;59.622;16.556;2023-08-07T04:05:15;18.10;99.90
11005;DHT22;5555;59.622;16.556;2023-08-07T04:07:40;18.20;99.90
11005;DHT22;5555;59.622;16.556;2023-08-07T04:10:06;18.20;99.90
11005;DHT22;5555;59.622;16.556;2023-08-07T04:12:32;18.20;99.90
11005;DHT22;5555;59.622;16.556;2023-08-07T04:14:58;18.20;99.90
11005;DHT22;5555;59.622;16.556;2023-08-07T04:17:23;18.20;99.90
11005;DHT22;5555;59.622;16.556;2023-08-07T04:19:49;18.30;99.90
11005;DHT22;5555;59.622;16.556;2023-08-07T04:22:14;18.20;99.90
11005;DHT22;5555;59.622;16.556;2023-08-07T04:24:40;18.30;99.90
11005;DHT22;5555;59.622;16.556;2023-08-07T04:27:06;18.30;99.90
11005;DHT22;5555;59.622;16.556;2023-08-07T04:29:31;18.30;99.90
11005;DHT22;5555;59.622;16.556;2023-08-07T04:31:57;18.30;99.90
11005;DHT22;5555;59.622;16.556;2023-08-07T04:34:22;18.40;99.90
11005;DHT22;5555;59.622;16.556;2023-08-07T04:36:48;18.40;99.90
11005;DHT22;5555;59.622;16.556;2023-08-07T04:39:17;18.40;99.90
11005;DHT22;5555;59.622;16.556;2023-08-07T04:41:44;18.50;99.90
11005;DHT22;5555;59.622;16.556;2023-08-07T04:44:09;18.50;99.90
11005;DHT22;5555;59.622;16.556;2023-08-07T04:46:35;18.60;99.90
11005;DHT22;5555;59.622;16.556;2023-08-07T04:49:00;18.60;99.90
11005;DHT22;5555;59.622;16.556;2023-08-07T04:51:26;18.70;99.90
11005;DHT22;5555;59.622;16.556;2023-08-07T04:53:53;18.70;99.90
11005;DHT22;5555;59.622;16.556;2023-08-07T04:56:22;18.80;99.90
11005;DHT22;5555;59.622;16.556;2023-08-07T04:58:47;18.80;99.90
11005;DHT22;5555;59.622;16.556;2023-08-07T05:01:13;18.80;99.90
11005;DHT22;5555;59.622;16.556;2023-08-07T05:03:39;18.80;99.90
11005;DHT22;5555;59.622;16.556;2023-08-07T05:06:04;18.80;99.90
11005;DHT22;5555;59.622;16.556;2023-08-07T05:08:30;18.80;99.90
11005;DHT22;5555;59.622;16.556;2023-08-07T05:10:56;18.90;99.90
11005;DHT22;5555;59.622;16.556;2023-08-07T05:13:22;19.00;99.90
11005;DHT22;5555;59.622;16.556;2023-08-07T05:15:48;19.00;99.90
11005;DHT22;5555;59.622;16.556;2023-08-07T05:18:16;19.10;99.90
11005;DHT22;5555;59.622;16.556;2023-08-07T05:20:42;19.10;99.90
11005;DHT22;5555;59.622;16.556;2023-08-07T05:23:08;19.10;99.90
11005;DHT22;5555;59.622;16.556;2023-08-07T05:25:34;19.20;99.90
11005;DHT22;5555;59.622;16.556;2023-08-07T05:27:59;19.20;99.90
11005;DHT22;5555;59.622;16.556;2023-08-07T05:30:25;19.30;99.90
11005;DHT22;5555;59.622;16.556;2023-08-07T05:32:51;19.30;99.90
11005;DHT22;5555;59.622;16.556;2023-08-07T05:35:16;19.40;99.90
11005;DHT22;5555;59.622;16.556;2023-08-07T05:37:42;19.40;99.90
11005;DHT22;5555;59.622;16.556;2023-08-07T05:40:08;19.50;99.90
11005;DHT22;5555;59.622;16.556;2023-08-07T05:42:33;19.50;99.90
11005;DHT22;5555;59.622;16.556;2023-08-07T05:45:00;19.50;99.90
11005;DHT22;5555;59.622;16.556;2023-08-07T05:47:26;19.50;99.90
11005;DHT22;5555;59.622;16.556;2023-08-07T05:49:51;19.50;99.90
11005;DHT22;5555;59.622;16.556;2023-08-07T05:52:18;19.50;99.90
11005;DHT22;5555;59.622;16.556;2023-08-07T05:54:43;19.60;99.90
11005;DHT22;5555;59.622;16.556;2023-08-07T05:57:09;19.60;99.90
11005;DHT22;5555;59.622;16.556;2023-08-07T05:59:35;19.60;99.90
11005;DHT22;5555;59.622;16.556;2023-08-07T06:02:02;19.60;99.90
11005;DHT22;5555;59.622;16.556;2023-08-07T06:04:28;19.70;99.90
11005;DHT22;5555;59.622;16.556;2023-08-07T06:06:54;19.80;99.90
11005;DHT22;5555;59.622;16.556;2023-08-07T06:09:20;20.00;99.90
11005;DHT22;5555;59.622;16.556;2023-08-07T06:11:47;20.10;99.90
11005;DHT22;5555;59.622;16.556;2023-08-07T06:14:13;20.10;99.90
11005;DHT22;5555;59.622;16.556;2023-08-07T06:16:38;20.20;99.90
11005;DHT22;5555;59.622;16.556;2023-08-07T06:19:04;20.30;99.90
11005;DHT22;5555;59.622;16.556;2023-08-07T06:21:30;20.40;99.90
11005;DHT22;5555;59.622;16.556;2023-08-07T06:23:56;20.60;99.90
11005;DHT22;5555;59.622;16.556;2023-08-07T06:26:22;20.60;99.90
11005;DHT22;5555;59.622;16.556;2023-08-07T06:28:48;20.70;99.90
11005;DHT22;5555;59.622;16.556;2023-08-07T06:31:15;20.70;99.90
11005;DHT22;5555;59.622;16.556;2023-08-07T06:33:40;20.70;99.90
11005;DHT22;5555;59.622;16.556;2023-08-07T06:36:07;20.60;99.90
11005;DHT22;5555;59.622;16.556;2023-08-07T06:38:33;20.60;99.90
11005;DHT22;5555;59.622;16.556;2023-08-07T06:40:59;20.60;99.90
11005;DHT22;5555;59.622;16.556;2023-08-07T06:43:25;20.50;99.90
11005;DHT22;5555;59.622;16.556;2023-08-07T06:45:54;20.70;99.90
11005;DHT22;5555;59.622;16.556;2023-08-07T06:48:20;20.80;99.90
11005;DHT22;5555;59.622;16.556;2023-08-07T06:50:47;20.90;99.90
11005;DHT22;5555;59.622;16.556;2023-08-07T06:53:13;21.10;99.90
11005;DHT22;5555;59.622;16.556;2023-08-07T06:55:38;21.10;99.90
11005;DHT22;5555;59.622;16.556;2023-08-07T06:58:04;21.10;99.90
11005;DHT22;5555;59.622;16.556;2023-08-07T07:00:30;21.30;99.90
11005;DHT22;5555;59.622;16.556;2023-08-07T07:02:55;21.40;99.90
11005;DHT22;5555;59.622;16.556;2023-08-07T07:05:21;21.50;99.90
11005;DHT22;5555;59.622;16.556;2023-08-07T07:07:46;21.40;99.90
11005;DHT22;5555;59.622;16.556;2023-08-07T07:10:12;21.20;99.90
11005;DHT22;5555;59.622;16.556;2023-08-07T07:12:38;21.20;99.90
11005;DHT22;5555;59.622;16.556;2023-08-07T07:15:04;21.10;99.90
11005;DHT22;5555;59.622;16.556;2023-08-07T07:17:29;21.00;99.90
11005;DHT22;5555;59.622;16.556;2023-08-07T07:19:55;21.00;99.90
11005;DHT22;5555;59.622;16.556;2023-08-07T07:22:22;20.80;99.90
11005;DHT22;5555;59.622;16.556;2023-08-07T07:24:48;20.80;99.90
11005;DHT22;5555;59.622;16.556;2023-08-07T07:27:13;20.70;99.90
11005;DHT22;5555;59.622;16.556;2023-08-07T07:29:39;20.70;99.90
11005;DHT22;5555;59.622;16.556;2023-08-07T07:32:05;20.70;99.90
11005;DHT22;5555;59.622;16.556;2023-08-07T07:34:31;20.80;99.90
11005;DHT22;5555;59.622;16.556;2023-08-07T07:36:58;20.80;99.90
11005;DHT22;5555;59.622;16.556;2023-08-07T07:39:24;20.90;99.90
11005;DHT22;5555;59.622;16.556;2023-08-07T07:41:49;21.00;99.90
11005;DHT22;5555;59.622;16.556;2023-08-07T07:44:15;21.00;99.90
11005;DHT22;5555;59.622;16.556;2023-08-07T07:46:40;21.20;99.90
11005;DHT22;5555;59.622;16.556;2023-08-07T07:49:06;21.30;99.90
11005;DHT22;5555;59.622;16.556;2023-08-07T07:51:32;21.40;99.90
11005;DHT22;5555;59.622;16.556;2023-08-07T07:53:58;21.40;99.90
11005;DHT22;5555;59.622;16.556;2023-08-07T07:56:24;21.50;99.90
11005;DHT22;5555;59.622;16.556;2023-08-07T07:58:49;21.70;99.90
11005;DHT22;5555;59.622;16.556;2023-08-07T08:01:15;21.70;99.90
11005;DHT22;5555;59.622;16.556;2023-08-07T08:03:41;21.90;99.90
11005;DHT22;5555;59.622;16.556;2023-08-07T08:06:09;22.10;99.90
11005;DHT22;5555;59.622;16.556;2023-08-07T08:08:34;22.00;99.90
11005;DHT22;5555;59.622;16.556;2023-08-07T08:11:00;22.00;99.90
11005;DHT22;5555;59.622;16.556;2023-08-07T08:13:26;22.00;99.90
11005;DHT22;5555;59.622;16.556;2023-08-07T08:15:51;22.10;99.90
11005;DHT22;5555;59.622;16.556;2023-08-07T08:18:17;22.00;99.90
11005;DHT22;5555;59.622;16.556;2023-08-07T08:20:43;21.80;99.90
11005;DHT22;5555;59.622;16.556;2023-08-07T08:23:08;21.80;99.90
11005;DHT22;5555;59.622;16.556;2023-08-07T08:25:34;21.70;99.90
11005;DHT22;5555;59.622;16.556;2023-08-07T08:28:00;21.60;99.90
11005;DHT22;5555;59.622;16.556;2023-08-07T08:30:26;21.50;99.90
11005;DHT22;5555;59.622;16.556;2023-08-07T08:32:51;21.60;99.90
11005;DHT22;5555;59.622;16.556;2023-08-07T08:35:17;21.50;99.90
11005;DHT22;5555;59.622;16.556;2023-08-07T08:37:43;21.50;99.90
11005;DHT22;5555;59.622;16.556;2023-08-07T08:40:09;21.40;99.90
11005;DHT22;5555;59.622;16.556;2023-08-07T08:42:39;21.40;99.90
11005;DHT22;5555;59.622;16.556;2023-08-07T08:45:08;21.30;99.90
11005;DHT22;5555;59.622;16.556;2023-08-07T08:47:36;21.30;99.90
11005;DHT22;5555;59.622;16.556;2023-08-07T08:50:08;21.40;99.90
11005;DHT22;5555;59.622;16.556;2023-08-07T08:52:41;21.40;99.90
11005;DHT22;5555;59.622;16.556;2023-08-07T08:55:07;21.50;99.90
11005;DHT22;5555;59.622;16.556;2023-08-07T08:57:34;21.60;99.90
11005;DHT22;5555;59.622;16.556;2023-08-07T09:00:01;21.60;99.90
11005;DHT22;5555;59.622;16.556;2023-08-07T09:02:32;21.50;99.90
11005;DHT22;5555;59.622;16.556;2023-08-07T09:04:58;21.50;99.90
11005;DHT22;5555;59.622;16.556;2023-08-07T09:07:24;21.40;99.90
11005;DHT22;5555;59.622;16.556;2023-08-07T09:09:52;21.30;99.90
11005;DHT22;5555;59.622;16.556;2023-08-07T09:12:26;21.20;99.90
11005;DHT22;5555;59.622;16.556;2023-08-07T09:14:56;21.10;99.90
11005;DHT22;5555;59.622;16.556;2023-08-07T09:17:27;21.10;99.90
11005;DHT22;5555;59.622;16.556;2023-08-07T09:19:54;21.00;99.90
11005;DHT22;5555;59.622;16.556;2023-08-07T09:22:20;21.00;99.90
11005;DHT22;5555;59.622;16.556;2023-08-07T09:24:46;20.90;99.90
11005;DHT22;5555;59.622;16.556;2023-08-07T09:27:12;20.90;99.90
11005;DHT22;5555;59.622;16.556;2023-08-07T09:29:41;20.90;99.90
11005;DHT22;5555;59.622;16.556;2023-08-07T09:32:14;21.10;99.90
11005;DHT22;5555;59.622;16.556;2023-08-07T09:34:41;21.20;99.90
11005;DHT22;5555;59.622;16.556;2023-08-07T09:37:07;21.40;99.90
11005;DHT22;5555;59.622;16.556;2023-08-07T09:39:34;21.50;99.90
11005;DHT22;5555;59.622;16.556;2023-08-07T09:42:01;21.80;99.90
11005;DHT22;5555;59.622;16.556;2023-08-07T09:44:35;22.20;99.90
11005;DHT22;5555;59.622;16.556;2023-08-07T09:47:15;22.50;99.90
11005;DHT22;5555;59.622;16.556;2023-08-07T09:49:41;22.50;99.90
11005;DHT22;5555;59.622;16.556;2023-08-07T09:52:08;22.50;99.90
11005;DHT22;5555;59.622;16.556;2023-08-07T09:54:34;22.80;99.90
11005;DHT22;5555;59.622;16.556;2023-08-07T09:57:04;22.80;99.90
11005;DHT22;5555;59.622;16.556;2023-08-07T09:59:32;22.90;99.90
11005;DHT22;5555;59.622;16.556;2023-08-07T10:02:00;23.00;99.90
11005;DHT22;5555;59.622;16.556;2023-08-07T10:04:27;23.00;99.90
11005;DHT22;5555;59.622;16.556;2023-08-07T10:06:53;22.90;99.90
11005;DHT22;5555;59.622;16.556;2023-08-07T10:09:19;22.90;99.90
11005;DHT22;5555;59.622;16.556;2023-08-07T10:11:45;22.90;99.90
11005;DHT22;5555;59.622;16.556;2023-08-07T10:14:14;22.60;99.90
11005;DHT22;5555;59.622;16.556;2023-08-07T10:16:41;22.40;99.90
11005;DHT22;5555;59.622;16.556;2023-08-07T10:19:10;22.40;99.90
11005;DHT22;5555;59.622;16.556;2023-08-07T10:21:39;22.50;99.90
11005;DHT22;5555;59.622;16.556;2023-08-07T10:24:05;22.70;99.90
11005;DHT22;5555;59.622;16.556;2023-08-07T10:26:37;22.80;99.90
11005;DHT22;5555;59.622;16.556;2023-08-07T10:29:05;23.10;99.90
11005;DHT22;5555;59.622;16.556;2023-08-07T10:31:33;23.30;99.90
11005;DHT22;5555;59.622;16.556;2023-08-07T10:34:01;23.30;99.90
11005;DHT22;5555;59.622;16.556;2023-08-07T10:36:37;23.50;99.90
11005;DHT22;5555;59.622;16.556;2023-08-07T10:39:11;23.60;99.90
11005;DHT22;5555;59.622;16.556;2023-08-07T10:41:47;23.40;99.90
11005;DHT22;5555;59.622;16.556;2023-08-07T10:44:27;23.30;99.90
11005;DHT22;5555;59.622;16.556;2023-08-07T10:46:57;23.20;99.90
11005;DHT22;5555;59.622;16.556;2023-08-07T10:49:40;23.20;99.90
11005;DHT22;5555;59.622;16.556;2023-08-07T10:52:14;23.30;99.90
11005;DHT22;5555;59.622;16.556;2023-08-07T10:54:48;23.30;99.90
11005;DHT22;5555;59.622;16.556;2023-08-07T10:57:14;23.40;99.90
11005;DHT22;5555;59.622;16.556;2023-08-07T11:02:25;23.50;99.90
11005;DHT22;5555;59.622;16.556;2023-08-07T11:04:52;23.50;99.90
11005;DHT22;5555;59.622;16.556;2023-08-07T11:07:26;23.40;99.90
11005;DHT22;5555;59.622;16.556;2023-08-07T11:09:56;23.30;99.90
11005;DHT22;5555;59.622;16.556;2023-08-07T11:12:26;23.20;99.90
11005;DHT22;5555;59.622;16.556;2023-08-07T11:14:53;23.20;99.90
11005;DHT22;5555;59.622;16.556;2023-08-07T11:17:24;23.00;99.90
11005;DHT22;5555;59.622;16.556;2023-08-07T11:19:51;23.10;99.90
11005;DHT22;5555;59.622;16.556;2023-08-07T11:22:16;23.20;99.90
11005;DHT22;5555;59.622;16.556;2023-08-07T11:24:42;23.20;99.90
11005;DHT22;5555;59.622;16.556;2023-08-07T11:27:08;23.10;99.90
11005;DHT22;5555;59.622;16.556;2023-08-07T11:29:34;23.10;99.90
11005;DHT22;5555;59.622;16.556;2023-08-07T11:32:00;23.00;99.90
11005;DHT22;5555;59.622;16.556;2023-08-07T11:34:26;23.00;99.90
11005;DHT22;5555;59.622;16.556;2023-08-07T11:36:51;23.00;99.90
11005;DHT22;5555;59.622;16.556;2023-08-07T11:39:17;22.90;99.90
11005;DHT22;5555;59.622;16.556;2023-08-07T11:41:44;22.90;99.90
11005;DHT22;5555;59.622;16.556;2023-08-07T11:44:10;22.90;99.90
11005;DHT22;5555;59.622;16.556;2023-08-07T11:46:36;23.20;99.90
11005;DHT22;5555;59.622;16.556;2023-08-07T11:49:02;23.70;99.90
11005;DHT22;5555;59.622;16.556;2023-08-07T11:51:30;24.00;99.90
11005;DHT22;5555;59.622;16.556;2023-08-07T11:53:56;24.20;99.90
11005;DHT22;5555;59.622;16.556;2023-08-07T11:56:24;24.70;99.90
11005;DHT22;5555;59.622;16.556;2023-08-07T11:58:52;25.10;99.90
11005;DHT22;5555;59.622;16.556;2023-08-07T12:01:22;25.30;99.90
11005;DHT22;5555;59.622;16.556;2023-08-07T12:03:53;25.50;99.90
11005;DHT22;5555;59.622;16.556;2023-08-07T12:06:20;25.40;99.90
11005;DHT22;5555;59.622;16.556;2023-08-07T12:08:49;25.30;99.90
11005;DHT22;5555;59.622;16.556;2023-08-07T12:11:17;25.80;99.90
11005;DHT22;5555;59.622;16.556;2023-08-07T12:13:44;26.10;99.90
11005;DHT22;5555;59.622;16.556;2023-08-07T12:16:10;25.90;99.90
11005;DHT22;5555;59.622;16.556;2023-08-07T12:18:52;25.80;99.90
11005;DHT22;5555;59.622;16.556;2023-08-07T12:21:22;25.90;99.90
11005;DHT22;5555;59.622;16.556;2023-08-07T12:23:51;25.60;99.90
11005;DHT22;5555;59.622;16.556;2023-08-07T12:26:19;25.20;99.90
11005;DHT22;5555;59.622;16.556;2023-08-07T12:28:45;25.00;99.90
11005;DHT22;5555;59.622;16.556;2023-08-07T12:31:11;25.00;99.90
11005;DHT22;5555;59.622;16.556;2023-08-07T12:33:36;25.20;99.90
11005;DHT22;5555;59.622;16.556;2023-08-07T12:36:02;25.80;99.90
11005;DHT22;5555;59.622;16.556;2023-08-07T12:38:28;26.40;99.90
11005;DHT22;5555;59.622;16.556;2023-08-07T12:40:54;26.30;99.90
11005;DHT22;5555;59.622;16.556;2023-08-07T12:43:20;26.40;99.90
11005;DHT22;5555;59.622;16.556;2023-08-07T12:45:46;26.30;99.90
11005;DHT22;5555;59.622;16.556;2023-08-07T12:48:11;26.90;99.90
11005;DHT22;5555;59.622;16.556;2023-08-07T12:50:38;27.20;99.90
11005;DHT22;5555;59.622;16.556;2023-08-07T12:53:04;27.40;99.90
11005;DHT22;5555;59.622;16.556;2023-08-07T12:55:29;27.30;99.90
11005;DHT22;5555;59.622;16.556;2023-08-07T12:57:59;27.50;99.90
11005;DHT22;5555;59.622;16.556;2023-08-07T13:00:24;27.20;99.90
11005;DHT22;5555;59.622;16.556;2023-08-07T13:02:52;26.70;99.90
11005;DHT22;5555;59.622;16.556;2023-08-07T13:05:19;26.50;99.90
11005;DHT22;5555;59.622;16.556;2023-08-07T13:07:46;25.90;99.90
11005;DHT22;5555;59.622;16.556;2023-08-07T13:10:14;25.90;99.90
11005;DHT22;5555;59.622;16.556;2023-08-07T13:12:42;25.40;99.90
11005;DHT22;5555;59.622;16.556;2023-08-07T13:15:10;25.50;99.90
11005;DHT22;5555;59.622;16.556;2023-08-07T13:17:38;25.30;99.90
11005;DHT22;5555;59.622;16.556;2023-08-07T13:20:05;25.60;99.90
11005;DHT22;5555;59.622;16.556;2023-08-07T13:22:34;26.10;99.90
11005;DHT22;5555;59.622;16.556;2023-08-07T13:25:00;26.50;99.90
11005;DHT22;5555;59.622;16.556;2023-08-07T13:27:26;26.20;99.90
11005;DHT22;5555;59.622;16.556;2023-08-07T13:29:52;26.40;99.90
11005;DHT22;5555;59.622;16.556;2023-08-07T13:32:18;25.90;99.90
11005;DHT22;5555;59.622;16.556;2023-08-07T13:34:45;25.50;99.90
11005;DHT22;5555;59.622;16.556;2023-08-07T13:37:11;25.10;99.90
11005;DHT22;5555;59.622;16.556;2023-08-07T13:39:37;25.10;99.90
11005;DHT22;5555;59.622;16.556;2023-08-07T13:42:02;25.10;99.90
11005;DHT22;5555;59.622;16.556;2023-08-07T13:44:28;25.30;99.90
11005;DHT22;5555;59.622;16.556;2023-08-07T13:46:54;25.20;99.90
11005;DHT22;5555;59.622;16.556;2023-08-07T13:49:24;25.60;99.90
11005;DHT22;5555;59.622;16.556;2023-08-07T13:51:50;25.80;99.90
11005;DHT22;5555;59.622;16.556;2023-08-07T13:54:16;25.40;99.90
11005;DHT22;5555;59.622;16.556;2023-08-07T13:56:41;25.70;99.90
11005;DHT22;5555;59.622;16.556;2023-08-07T13:59:07;25.40;99.90
11005;DHT22;5555;59.622;16.556;2023-08-07T14:01:34;25.10;99.90
11005;DHT22;5555;59.622;16.556;2023-08-07T14:04:01;25.00;99.90
11005;DHT22;5555;59.622;16.556;2023-08-07T14:06:27;24.80;99.90
11005;DHT22;5555;59.622;16.556;2023-08-07T14:08:52;24.80;99.90
11005;DHT22;5555;59.622;16.556;2023-08-07T14:11:18;25.20;99.90
11005;DHT22;5555;59.622;16.556;2023-08-07T14:13:44;25.60;99.90
11005;DHT22;5555;59.622;16.556;2023-08-07T14:16:11;25.70;99.90
11005;DHT22;5555;59.622;16.556;2023-08-07T14:18:37;25.10;99.90
11005;DHT22;5555;59.622;16.556;2023-08-07T14:21:03;24.70;99.90
11005;DHT22;5555;59.622;16.556;2023-08-07T14:23:28;24.50;99.90
11005;DHT22;5555;59.622;16.556;2023-08-07T14:25:54;24.40;99.90
11005;DHT22;5555;59.622;16.556;2023-08-07T14:28:20;24.50;99.90
11005;DHT22;5555;59.622;16.556;2023-08-07T14:30:47;24.40;99.90
11005;DHT22;5555;59.622;16.556;2023-08-07T14:33:12;24.40;99.90
11005;DHT22;5555;59.622;16.556;2023-08-07T14:35:38;24.60;99.90
11005;DHT22;5555;59.622;16.556;2023-08-07T14:38:04;24.90;99.90
11005;DHT22;5555;59.622;16.556;2023-08-07T14:40:29;25.00;99.90
11005;DHT22;5555;59.622;16.556;2023-08-07T14:42:55;25.10;99.90
11005;DHT22;5555;59.622;16.556;2023-08-07T14:45:21;24.80;99.90
11005;DHT22;5555;59.622;16.556;2023-08-07T14:47:49;24.80;99.90
11005;DHT22;5555;59.622;16.556;2023-08-07T14:50:15;24.70;99.90
11005;DHT22;5555;59.622;16.556;2023-08-07T14:52:44;24.70;99.90
11005;DHT22;5555;59.622;16.556;2023-08-07T14:55:10;24.50;99.90
11005;DHT22;5555;59.622;16.556;2023-08-07T14:57:35;24.60;99.90
11005;DHT22;5555;59.622;16.556;2023-08-07T15:00:01;24.60;99.90
11005;DHT22;5555;59.622;16.556;2023-08-07T15:02:27;24.90;99.90
11005;DHT22;5555;59.622;16.556;2023-08-07T15:04:52;25.20;99.90
11005;DHT22;5555;59.622;16.556;2023-08-07T15:07:18;25.30;99.90
11005;DHT22;5555;59.622;16.556;2023-08-07T15:09:44;25.40;99.90
11005;DHT22;5555;59.622;16.556;2023-08-07T15:12:10;25.70;99.90
11005;DHT22;5555;59.622;16.556;2023-08-07T15:14:35;26.20;99.90
11005;DHT22;5555;59.622;16.556;2023-08-07T15:17:01;26.40;99.90
11005;DHT22;5555;59.622;16.556;2023-08-07T15:19:27;27.00;99.90
11005;DHT22;5555;59.622;16.556;2023-08-07T15:21:52;26.90;99.90
11005;DHT22;5555;59.622;16.556;2023-08-07T15:24:18;27.70;99.90
11005;DHT22;5555;59.622;16.556;2023-08-07T15:26:44;28.10;99.90
11005;DHT22;5555;59.622;16.556;2023-08-07T15:29:11;27.70;99.90
11005;DHT22;5555;59.622;16.556;2023-08-07T15:31:36;27.60;99.90
11005;DHT22;5555;59.622;16.556;2023-08-07T15:34:02;27.50;99.90